createdAt,value
2023-02-19T00:01:53.676Z,98578.91
2023-02-19T00:04:23.763Z,98574.44
2023-02-19T00:06:52.376Z,98577.50
2023-02-19T00:09:21.692Z,98568.38
2023-02-19T00:11:51.342Z,98568.63
2023-02-19T00:14:21.124Z,98562.66
2023-02-19T00:16:49.936Z,98561.91
2023-02-19T00:19:19.866Z,98559.50
2023-02-19T00:21:48.297Z,98561.38
2023-02-19T00:24:16.776Z,98560.94
2023-02-19T00:26:45.980Z,98561.16
2023-02-19T00:29:18.067Z,98561.75
2023-02-19T00:31:46.876Z,98561.97
2023-02-19T00:34:15.635Z,98562.66
2023-02-19T00:36:44.427Z,98564.88
2023-02-19T00:39:15.703Z,98559.81
2023-02-19T00:41:44.024Z,98566.00
2023-02-19T00:44:13.314Z,98573.25
2023-02-19T00:46:44.170Z,98563.94
2023-02-19T00:49:16.884Z,98568.69
2023-02-19T00:51:44.851Z,98564.38
2023-02-19T00:54:13.937Z,98560.06
2023-02-19T00:56:42.410Z,98561.09
2023-02-19T00:59:10.803Z,98555.50
2023-02-19T01:01:39.359Z,98556.91
2023-02-19T01:04:08.888Z,98550.72
2023-02-19T01:06:37.473Z,98551.91
2023-02-19T01:09:07.129Z,98551.53
2023-02-19T01:11:35.818Z,98550.28
2023-02-19T01:14:05.129Z,98543.25
2023-02-19T01:16:33.316Z,98529.38
2023-02-19T01:19:01.542Z,98519.00
2023-02-19T01:21:31.909Z,98522.38
2023-02-19T01:24:01.471Z,98518.88
2023-02-19T01:26:31.662Z,98517.59
2023-02-19T01:29:00.197Z,98522.97
2023-02-19T01:31:29.110Z,98512.69
2023-02-19T01:33:59.294Z,98522.16
2023-02-19T01:36:28.272Z,98521.69
2023-02-19T01:38:57.646Z,98506.28
2023-02-19T01:41:27.267Z,98507.31
2023-02-19T01:44:08.222Z,98505.81
2023-02-19T01:46:37.400Z,98511.78
2023-02-19T01:49:11.371Z,98510.97
2023-02-19T01:51:42.481Z,98517.97
2023-02-19T01:54:14.530Z,98508.03
2023-02-19T01:56:44.725Z,98503.13
2023-02-19T01:59:13.376Z,98501.25
2023-02-19T02:01:42.394Z,98504.75
2023-02-19T02:04:13.002Z,98502.31
2023-02-19T02:06:49.266Z,98509.31
2023-02-19T02:09:38.057Z,98500.06
2023-02-19T02:12:06.197Z,98497.75
2023-02-19T02:14:38.142Z,98506.19
2023-02-19T02:17:17.515Z,98493.78
2023-02-19T02:20:09.653Z,98490.53
2023-02-19T02:22:42.308Z,98494.25
2023-02-19T02:25:42.281Z,98483.75
2023-02-19T02:28:32.413Z,98479.19
2023-02-19T02:31:08.769Z,98480.22
2023-02-19T02:33:40.948Z,98481.88
2023-02-19T02:36:13.890Z,98480.59
2023-02-19T02:38:46.063Z,98482.34
2023-02-19T02:41:15.652Z,98476.50
2023-02-19T02:43:43.852Z,98475.56
2023-02-19T02:46:15.071Z,98471.22
2023-02-19T02:48:47.497Z,98467.13
2023-02-19T02:51:19.931Z,98472.88
2023-02-19T02:54:09.907Z,98471.22
2023-02-19T02:56:40.287Z,98469.38
2023-02-19T02:59:11.126Z,98476.72
2023-02-19T03:02:02.658Z,98469.38
2023-02-19T03:04:37.230Z,98470.19
2023-02-19T03:07:09.665Z,98471.72
2023-02-19T03:09:43.274Z,98460.63
2023-02-19T03:12:34.145Z,98470.09
2023-02-19T03:15:27.020Z,98469.03
2023-02-19T03:18:20.288Z,98462.25
2023-02-19T03:20:54.202Z,98452.69
2023-02-19T03:23:47.655Z,98461.81
2023-02-19T03:26:16.787Z,98449.53
2023-02-19T03:29:06.858Z,98446.03
2023-02-19T03:31:35.602Z,98449.06
2023-02-19T03:34:09.999Z,98447.19
2023-02-19T03:36:44.458Z,98460.16
2023-02-19T03:39:16.462Z,98457.47
2023-02-19T03:41:50.032Z,98459.47
2023-02-19T03:44:24.090Z,98451.28
2023-02-19T03:47:00.527Z,98453.75
2023-02-19T03:49:36.258Z,98468.53
2023-02-19T03:52:12.491Z,98463.31
2023-02-19T03:54:48.472Z,98464.81
2023-02-19T03:57:22.421Z,98470.19
2023-02-19T03:59:54.725Z,98465.84
2023-02-19T04:02:31.000Z,98480.31
2023-02-19T04:05:09.244Z,98472.28
2023-02-19T04:07:42.255Z,98480.91
2023-02-19T04:10:11.089Z,98487.94
2023-02-19T04:12:42.236Z,98488.53
2023-02-19T04:15:13.841Z,98486.28
2023-02-19T04:17:48.127Z,98486.28
2023-02-19T04:20:20.096Z,98488.63
2023-02-19T04:22:48.697Z,98488.53
2023-02-19T04:25:16.709Z,98495.63
2023-02-19T04:27:47.230Z,98491.34
2023-02-19T04:30:15.864Z,98493.28
2023-02-19T04:32:43.778Z,98497.41
2023-02-19T04:35:11.994Z,98497.41
2023-02-19T04:37:41.849Z,98500.31
2023-02-19T04:40:11.296Z,98496.13
2023-02-19T04:42:39.243Z,98510.59
2023-02-19T04:45:07.850Z,98513.06
2023-02-19T04:47:35.803Z,98516.56
2023-02-19T04:50:03.901Z,98516.78
2023-02-19T04:52:33.319Z,98518.88
2023-02-19T04:55:02.761Z,98530.88
2023-02-19T04:57:30.761Z,98524.69
2023-02-19T04:59:58.754Z,98537.53
2023-02-19T05:02:26.743Z,98539.03
2023-02-19T05:04:55.130Z,98541.59
2023-02-19T05:07:23.277Z,98535.63
2023-02-19T05:09:51.712Z,98540.41
2023-02-19T05:12:23.540Z,98528.03
2023-02-19T05:14:51.470Z,98543.56
2023-02-19T05:17:19.436Z,98546.31
2023-02-19T05:19:47.527Z,98539.63
2023-02-19T05:22:15.776Z,98542.22
2023-02-19T05:24:44.020Z,98540.66
2023-02-19T05:27:12.012Z,98545.13
2023-02-19T05:29:41.435Z,98534.03
2023-02-19T05:32:09.443Z,98534.25
2023-02-19T05:34:37.328Z,98530.16
2023-02-19T05:37:05.289Z,98544.91
2023-02-19T05:39:33.200Z,98537.97
2023-02-19T05:42:01.113Z,98546.16
2023-02-19T05:44:29.248Z,98554.91
2023-02-19T05:46:58.836Z,98557.72
2023-02-19T05:49:26.950Z,98555.03
2023-02-19T05:51:54.977Z,98558.03
2023-02-19T05:54:23.154Z,98554.97
2023-02-19T05:56:51.303Z,98559.22
2023-02-19T05:59:22.293Z,98564.59
2023-02-19T06:01:51.186Z,98565.41
2023-02-19T06:04:21.073Z,98556.59
2023-02-19T06:06:49.597Z,98555.19
2023-02-19T06:09:18.112Z,98550.41
2023-02-19T06:11:46.166Z,98530.44
2023-02-19T06:14:14.700Z,98535.97
2023-02-19T06:16:42.853Z,98536.41
2023-02-19T06:19:11.776Z,98555.50
2023-02-19T06:21:41.660Z,98557.66
2023-02-19T06:24:10.444Z,98565.19
2023-02-19T06:26:39.239Z,98576.97
2023-02-19T06:29:10.357Z,98569.13
2023-02-19T06:31:38.940Z,98564.13
2023-02-19T06:34:07.600Z,98569.72
2023-02-19T06:36:35.946Z,98571.28
2023-02-19T06:39:06.623Z,98573.38
2023-02-19T06:41:34.884Z,98569.06
2023-02-19T06:44:02.897Z,98574.28
2023-02-19T06:46:31.136Z,98575.47
2023-02-19T06:48:59.459Z,98585.00
2023-02-19T06:51:29.684Z,98590.22
2023-02-19T06:53:58.403Z,98590.16
2023-02-19T06:56:29.533Z,98600.50
2023-02-19T06:58:59.859Z,98603.34
2023-02-19T07:01:31.179Z,98602.31
2023-02-19T07:03:59.508Z,98605.59
2023-02-19T07:06:28.805Z,98605.34
2023-02-19T07:08:58.284Z,98606.19
2023-02-19T07:11:30.726Z,98613.78
2023-02-19T07:13:59.323Z,98618.94
2023-02-19T07:16:28.263Z,98621.75
2023-02-19T07:18:57.755Z,98619.31
2023-02-19T07:21:28.327Z,98634.97
2023-02-19T07:23:56.722Z,98630.56
2023-02-19T07:26:25.049Z,98640.81
2023-02-19T07:28:54.360Z,98640.81
2023-02-19T07:31:24.792Z,98641.41
2023-02-19T07:33:53.856Z,98647.72
2023-02-19T07:36:24.624Z,98637.69
2023-02-19T07:38:56.652Z,98639.41
2023-02-19T07:41:25.528Z,98638.34
2023-02-19T07:43:55.519Z,98644.66
2023-02-19T07:46:24.117Z,98645.91
2023-02-19T07:48:52.490Z,98645.25
2023-02-19T07:51:21.578Z,98660.88
2023-02-19T07:53:51.438Z,98656.22
2023-02-19T07:56:21.043Z,98651.56
2023-02-19T07:58:49.036Z,98648.66
2023-02-19T08:01:40.058Z,98645.75
2023-02-19T08:04:07.313Z,98646.13
2023-02-19T08:06:35.224Z,98651.63
2023-02-19T08:09:03.113Z,98652.81
2023-02-19T08:11:48.492Z,98647.31
2023-02-19T08:14:18.340Z,98650.72
2023-02-19T08:16:51.837Z,98649.63
2023-02-19T08:19:20.405Z,98654.63
2023-02-19T08:21:48.381Z,98662.81
2023-02-19T08:24:17.122Z,98657.81
2023-02-19T08:26:45.168Z,98656.53
2023-02-19T08:29:13.178Z,98669.28
2023-02-19T08:31:41.272Z,98679.13
2023-02-19T08:34:12.163Z,98698.53
2023-02-19T08:36:40.147Z,98705.19
2023-02-19T08:39:08.158Z,98688.25
2023-02-19T08:41:36.131Z,98695.84
2023-02-19T08:44:04.022Z,98686.97
2023-02-19T08:46:34.277Z,98701.81
2023-02-19T08:49:02.464Z,98692.13
2023-02-19T08:51:31.889Z,98696.22
2023-02-19T08:53:59.785Z,98696.81
2023-02-19T08:56:27.726Z,98710.41
2023-02-19T08:58:55.744Z,98707.72
2023-02-19T09:01:24.009Z,98716.50
2023-02-19T09:03:52.113Z,98711.59
2023-02-19T09:06:21.862Z,98719.78
2023-02-19T09:08:51.376Z,98714.66
2023-02-19T09:11:19.771Z,98732.78
2023-02-19T09:13:48.159Z,98731.72
2023-02-19T09:16:16.363Z,98735.25
2023-02-19T09:18:46.227Z,98739.47
2023-02-19T09:21:14.294Z,98740.28
2023-02-19T09:23:42.641Z,98739.91
2023-02-19T09:26:14.102Z,98741.91
2023-02-19T09:28:43.209Z,98741.09
2023-02-19T09:31:13.570Z,98745.44
2023-02-19T09:33:44.629Z,98742.06
2023-02-19T09:36:13.442Z,98749.53
2023-02-19T09:38:41.444Z,98735.88
2023-02-19T09:41:17.316Z,98745.94
2023-02-19T09:43:45.801Z,98750.03
2023-02-19T09:46:25.461Z,98756.59
2023-02-19T09:48:55.207Z,98761.75
2023-02-19T09:51:24.041Z,98757.78
2023-02-19T09:53:54.634Z,98766.31
2023-02-19T09:56:26.043Z,98771.31
2023-02-19T09:58:58.194Z,98767.34
2023-02-19T10:01:32.484Z,98784.13
2023-02-19T10:04:00.657Z,98780.63
2023-02-19T10:06:30.941Z,98785.91
2023-02-19T10:09:14.004Z,98777.41
2023-02-19T10:11:46.808Z,98778.22
2023-02-19T10:14:26.721Z,98766.28
2023-02-19T10:16:57.047Z,98772.59
2023-02-19T10:19:26.257Z,98782.09
2023-02-19T10:21:54.443Z,98791.81
2023-02-19T10:24:29.815Z,98790.56
2023-02-19T10:26:59.225Z,98783.44
2023-02-19T10:29:27.367Z,98794.88
2023-02-19T10:32:14.210Z,98801.31
2023-02-19T10:34:42.205Z,98804.38
2023-02-19T10:37:15.680Z,98809.16
2023-02-19T10:39:46.835Z,98803.91
2023-02-19T10:42:22.144Z,98807.78
2023-02-19T10:44:54.638Z,98806.75
2023-02-19T10:47:24.821Z,98821.75
2023-02-19T10:49:57.825Z,98812.25
2023-02-19T10:52:28.565Z,98814.72
2023-02-19T10:55:20.933Z,98817.53
2023-02-19T10:57:50.920Z,98824.78
2023-02-19T11:00:24.364Z,98815.66
2023-02-19T11:03:22.203Z,98812.97
2023-02-19T11:06:00.895Z,98814.00
2023-02-19T11:08:29.647Z,98810.84
2023-02-19T11:10:57.683Z,98821.03
2023-02-19T11:13:32.522Z,98812.97
2023-02-19T11:16:01.474Z,98805.34
2023-02-19T11:18:31.897Z,98818.78
2023-02-19T11:21:03.788Z,98817.97
2023-02-19T11:23:33.955Z,98814.50
2023-02-19T11:26:04.627Z,98815.88
2023-02-19T11:28:36.041Z,98824.19
2023-02-19T11:31:30.059Z,98828.66
2023-02-19T11:34:03.038Z,98809.00
2023-02-19T11:36:33.859Z,98810.41
2023-02-19T11:39:21.035Z,98811.09
2023-02-19T11:42:07.811Z,98810.16
2023-02-19T11:44:51.901Z,98823.13
2023-02-19T11:47:40.909Z,98829.09
2023-02-19T11:50:22.144Z,98837.91
2023-02-19T11:53:01.958Z,98845.97
2023-02-19T11:55:45.566Z,98847.41
2023-02-19T11:58:36.924Z,98845.66
2023-02-19T12:01:17.363Z,98848.56
2023-02-19T12:03:58.334Z,98843.44
2023-02-19T12:06:36.251Z,98843.69
2023-02-19T12:09:20.334Z,98849.53
2023-02-19T12:12:14.241Z,98852.00
2023-02-19T12:15:00.465Z,98850.59
2023-02-19T12:17:49.949Z,98841.00
2023-02-19T12:20:26.728Z,98843.69
2023-02-19T12:23:11.625Z,98829.19
2023-02-19T12:25:51.166Z,98832.47
2023-02-19T12:28:37.838Z,98832.47
2023-02-19T12:31:33.020Z,98838.56
2023-02-19T12:34:22.778Z,98837.50
2023-02-19T12:37:03.336Z,98828.97
2023-02-19T12:39:40.723Z,98850.75
2023-02-19T12:42:16.805Z,98851.69
2023-02-19T12:44:52.919Z,98832.38
2023-02-19T12:47:29.584Z,98836.72
2023-02-19T12:50:17.442Z,98838.34
2023-02-19T12:52:50.779Z,98825.97
2023-02-19T12:55:23.856Z,98819.28
2023-02-19T12:57:53.521Z,98813.66
2023-02-19T13:00:31.041Z,98814.25
2023-02-19T13:03:04.089Z,98820.94
2023-02-19T13:05:45.266Z,98823.97
2023-02-19T13:08:20.835Z,98822.31
2023-02-19T13:10:55.152Z,98823.59
2023-02-19T13:13:28.717Z,98819.13
2023-02-19T13:16:01.496Z,98827.66
2023-02-19T13:18:35.302Z,98830.22
2023-02-19T13:21:06.647Z,98834.75
2023-02-19T13:23:54.949Z,98831.56
2023-02-19T13:27:05.908Z,98829.69
2023-02-19T13:29:53.622Z,98833.28
2023-02-19T13:32:55.925Z,98841.44
2023-02-19T13:35:36.889Z,98844.06
2023-02-19T13:38:07.716Z,98835.31
2023-02-19T13:40:39.292Z,98829.88
2023-02-19T13:43:24.202Z,98828.53
2023-02-19T13:45:58.568Z,98828.84
2023-02-19T13:48:29.673Z,98825.34
2023-02-19T13:51:36.853Z,98816.09
2023-02-19T13:54:15.490Z,98822.31
2023-02-19T13:56:43.469Z,98822.13
2023-02-19T13:59:25.253Z,98813.38
2023-02-19T14:02:35.179Z,98829.50
2023-02-19T14:05:07.628Z,98822.34
2023-02-19T14:07:52.331Z,98828.84
2023-02-19T14:10:57.725Z,98827.03
2023-02-19T14:13:58.158Z,98818.56
2023-02-19T14:17:04.830Z,98805.28
2023-02-19T14:19:52.270Z,98807.88
2023-02-19T14:22:50.167Z,98811.19
2023-02-19T14:25:30.637Z,98815.53
2023-02-19T14:28:04.262Z,98811.06
2023-02-19T14:30:34.816Z,98809.56
2023-02-19T14:33:10.938Z,98828.31
2023-02-19T14:35:42.451Z,98828.84
2023-02-19T14:38:18.455Z,98829.88
2023-02-19T14:40:49.163Z,98826.75
2023-02-19T14:43:32.662Z,98826.28
2023-02-19T14:46:19.387Z,98826.81
2023-02-19T14:48:51.023Z,98835.69
2023-02-19T14:51:35.407Z,98838.31
2023-02-19T14:54:15.987Z,98841.06
2023-02-19T14:57:20.991Z,98845.91
2023-02-19T15:00:54.395Z,98834.56
2023-02-19T15:04:01.891Z,98841.81
2023-02-19T15:06:57.194Z,98849.22
2023-02-19T15:10:02.426Z,98869.81
2023-02-19T15:13:09.940Z,98871.78
2023-02-19T15:17:00.650Z,98878.53
2023-02-19T15:20:46.196Z,98875.66
2023-02-19T16:07:31.057Z,98877.22
2023-02-19T16:15:28.571Z,98892.63
2023-02-19T16:38:35.905Z,98903.16
2023-02-19T17:03:38.818Z,98903.03
2023-02-19T17:06:34.850Z,98910.19
2023-02-19T17:09:14.144Z,98917.44
2023-02-19T17:12:25.578Z,98921.81
2023-02-19T17:16:01.747Z,98923.09
2023-02-19T17:22:27.971Z,98943.59
2023-02-19T17:31:52.978Z,98941.72
2023-02-19T17:35:48.559Z,98942.81
2023-02-19T17:38:27.711Z,98954.44
2023-02-19T17:41:29.223Z,98955.22
2023-02-19T17:45:08.413Z,98961.22
2023-02-19T17:49:16.366Z,98958.38
2023-02-19T17:55:26.652Z,98978.00
2023-02-19T18:07:54.083Z,99005.94
2023-02-19T18:10:52.917Z,99010.28
2023-02-19T18:13:21.362Z,99017.53
2023-02-19T18:15:49.413Z,99014.59
2023-02-19T18:18:17.356Z,99028.44
2023-02-19T18:20:45.441Z,99024.94
2023-02-19T18:23:14.778Z,99027.00
2023-02-19T18:25:44.110Z,99023.72
2023-02-19T18:28:15.042Z,99026.63
2023-02-19T18:30:43.139Z,99036.75
2023-02-19T18:33:13.433Z,99036.53
2023-02-19T18:35:41.721Z,99032.66
2023-02-19T18:38:09.715Z,99040.66
2023-02-19T18:40:43.337Z,99029.69
2023-02-19T18:43:29.370Z,99037.00
2023-02-19T18:49:13.905Z,99046.38
2023-02-19T18:52:10.086Z,99041.22
2023-02-19T18:55:11.092Z,99054.03
2023-02-19T18:57:52.351Z,99043.91
2023-02-19T19:00:38.121Z,99036.72
2023-02-19T19:03:31.639Z,99037.75
2023-02-19T19:06:27.959Z,99043.13
2023-02-19T19:09:01.861Z,99058.81
2023-02-19T19:11:38.398Z,99059.03
2023-02-19T19:14:08.069Z,99054.47
2023-02-19T19:16:36.164Z,99067.28
2023-02-19T19:19:12.208Z,99068.75
2023-02-19T19:21:40.426Z,99078.09
2023-02-19T19:24:38.495Z,99077.09
2023-02-19T19:27:07.045Z,99073.53
2023-02-19T19:29:36.670Z,99085.53
2023-02-19T19:32:08.112Z,99087.41
2023-02-19T19:34:41.815Z,99081.19
2023-02-19T19:37:14.560Z,99083.50
2023-02-19T19:39:45.684Z,99074.78
2023-02-19T19:42:15.904Z,99095.25
2023-02-19T19:44:58.212Z,99083.91
2023-02-19T19:47:32.446Z,99084.53
2023-02-19T19:50:01.754Z,99092.19
2023-02-19T19:52:30.004Z,99095.47
2023-02-19T19:55:01.918Z,99101.06
2023-02-19T19:58:02.078Z,99101.88
2023-02-19T20:00:52.329Z,99099.59
2023-02-19T20:03:53.414Z,99090.09
2023-02-19T20:06:32.152Z,99096.50
2023-02-19T20:12:22.941Z,99089.06
2023-02-19T20:15:19.186Z,99083.91
2023-02-19T20:17:55.469Z,99080.63
2023-02-19T20:20:56.723Z,99076.72
2023-02-19T20:23:48.033Z,99081.63
2023-02-19T20:27:07.093Z,99089.28
2023-02-19T20:29:44.747Z,99087.00
2023-02-19T20:32:15.560Z,99089.03
2023-02-19T20:34:59.608Z,99093.81
2023-02-19T20:37:33.817Z,99108.59
2023-02-19T20:40:02.378Z,99106.31
2023-02-19T20:42:32.264Z,99102.81
2023-02-19T20:45:00.891Z,99099.31
2023-02-19T20:47:29.168Z,99098.50
2023-02-19T20:49:58.830Z,99088.22
2023-02-19T20:52:26.823Z,99098.34
2023-02-19T20:54:56.362Z,99092.38
2023-02-19T20:57:24.626Z,99094.66
2023-02-19T21:00:09.100Z,99098.59
2023-02-19T21:03:26.619Z,99097.53
2023-02-19T21:06:23.025Z,99100.03
2023-02-19T21:08:51.368Z,99104.78
2023-02-19T21:11:19.678Z,99099.63
2023-02-19T21:14:27.639Z,99101.47
2023-02-19T21:16:58.184Z,99097.16
2023-02-19T21:19:43.870Z,99093.69
2023-02-19T21:22:29.818Z,99082.75
2023-02-19T21:24:58.261Z,99095.31
2023-02-19T21:27:31.877Z,99099.03
2023-02-19T21:30:08.562Z,99098.63
2023-02-19T21:36:41.150Z,99097.41
2023-02-19T21:39:28.595Z,99089.34
2023-02-19T21:41:58.680Z,99099.66
2023-02-19T21:46:17.405Z,99091.41
2023-02-19T21:48:17.423Z,99088.13
2023-02-19T21:50:48.952Z,99079.66
2023-02-19T21:53:17.367Z,99093.91
2023-02-19T21:55:58.341Z,99087.28
2023-02-19T21:58:26.817Z,99083.38
2023-02-19T22:00:58.223Z,99095.75
2023-02-19T22:03:27.454Z,99088.75
2023-02-19T22:05:55.763Z,99081.31
2023-02-19T22:08:23.791Z,99085.25
2023-02-19T22:10:53.263Z,99089.56
2023-02-19T22:13:21.761Z,99073.28
2023-02-19T22:15:50.156Z,99071.63
2023-02-19T22:18:18.130Z,99089.16
2023-02-19T22:20:46.609Z,99093.06
2023-02-19T22:23:16.082Z,99100.31
2023-02-19T22:25:44.632Z,99100.50
2023-02-19T22:28:13.985Z,99100.28
2023-02-19T22:30:43.043Z,99105.47
2023-02-19T22:33:11.651Z,99110.41
2023-02-19T22:35:39.945Z,99106.69
2023-02-19T22:38:10.589Z,99110.63
2023-02-19T22:40:38.917Z,99109.59
2023-02-19T22:43:07.099Z,99121.31
2023-02-19T22:45:36.672Z,99123.41
2023-02-19T22:48:04.786Z,99113.50
2023-02-19T22:50:32.908Z,99121.75
2023-02-19T22:53:01.286Z,99115.34
2023-02-19T22:55:29.309Z,99114.94
2023-02-19T22:57:57.432Z,99110.00
2023-02-19T23:00:25.652Z,99116.81
2023-02-19T23:02:55.300Z,99116.41
2023-02-19T23:05:24.645Z,99125.88
2023-02-19T23:07:52.538Z,99131.06
2023-02-19T23:10:20.648Z,99123.41
2023-02-19T23:12:48.601Z,99130.66
2023-02-19T23:15:16.999Z,99141.59
2023-02-19T23:17:45.051Z,99135.81
2023-02-19T23:20:14.803Z,99124.84
2023-02-19T23:22:43.672Z,99130.03
2023-02-19T23:25:11.708Z,99127.75
2023-02-19T23:27:39.616Z,99129.19
2023-02-19T23:30:08.839Z,99130.03
2023-02-19T23:32:36.911Z,99131.69
2023-02-19T23:35:04.903Z,99135.00
2023-02-19T23:37:34.304Z,99135.63
2023-02-19T23:40:02.310Z,99131.50
2023-02-19T23:42:31.630Z,99134.38
2023-02-19T23:44:59.908Z,99137.06
2023-02-19T23:47:30.668Z,99133.34
2023-02-19T23:49:58.706Z,99130.88
2023-02-19T23:52:26.811Z,99133.75
2023-02-19T23:54:56.771Z,99137.25
2023-02-19T23:57:24.716Z,99131.88
2023-02-19T23:59:52.924Z,99128.38
